Time;durP1;ratioP1;P1;durP2;ratioP2;P2;SDS_P1;SDS_P2;PMS_P1;PMS_P2;Temp;Humidity;BMP_temperature;BMP_pressure;BME280_temperature;BME280_humidity;BME280_pressure;Samples;Min_cycle;Max_cycle;Signal;HPM_P1;HPM_P2
2022/11/23 00:00:13;;;;;;;10.43;3.30;;;;;;;2.10;100.00;94967.38;4912272;28;20445;-83
2022/11/23 00:02:39;;;;;;;9.17;2.73;;;;;;;2.03;100.00;94968.09;4908348;28;20077;-82
2022/11/23 00:05:07;;;;;;;7.60;2.20;;;;;;;2.02;100.00;94969.88;4909312;28;20046;-83
2022/11/23 00:07:33;;;;;;;7.87;2.83;;;;;;;2.01;100.00;94976.00;4872869;28;20050;-82
2022/11/23 00:09:58;;;;;;;8.90;2.93;;;;;;;1.95;100.00;94962.78;4891255;28;20043;-83
2022/11/23 00:12:24;;;;;;;8.37;2.93;;;;;;;1.92;100.00;94963.88;4877297;28;20039;-83
2022/11/23 00:14:50;;;;;;;8.83;3.07;;;;;;;1.90;100.00;94970.94;4871912;28;20614;-82
2022/11/23 00:17:16;;;;;;;7.93;3.00;;;;;;;1.87;100.00;94968.63;4878347;28;20042;-83
2022/11/23 00:19:41;;;;;;;10.97;3.73;;;;;;;1.81;100.00;94969.19;4897500;28;20082;-82
2022/11/23 00:22:07;;;;;;;10.43;4.17;;;;;;;1.73;100.00;94974.22;4893718;28;20074;-83
2022/11/23 00:24:33;;;;;;;10.80;3.33;;;;;;;1.70;100.00;94966.72;4893379;28;20038;-81
2022/11/23 00:26:58;;;;;;;14.83;3.87;;;;;;;1.60;100.00;94972.72;4912297;28;20135;-83
2022/11/23 00:29:24;;;;;;;10.97;4.40;;;;;;;1.48;100.00;94973.00;4910165;28;20039;-81
2022/11/23 00:31:50;;;;;;;9.67;3.87;;;;;;;1.42;100.00;94975.16;4910021;28;20532;-82
2022/11/23 00:34:16;;;;;;;10.43;3.90;;;;;;;1.31;100.00;94983.06;4898942;28;20127;-83
2022/11/23 00:36:42;;;;;;;12.17;4.60;;;;;;;1.28;100.00;94977.34;4914703;28;20545;-83
2022/11/23 00:39:08;;;;;;;10.97;4.53;;;;;;;1.20;100.00;94980.56;4927897;28;20085;-83
2022/11/23 00:41:34;;;;;;;9.23;4.07;;;;;;;1.33;100.00;94985.50;4930235;28;20035;-83
2022/11/23 00:44:01;;;;;;;8.67;3.90;;;;;;;1.17;100.00;94980.81;4912179;28;20031;-82
2022/11/23 00:46:27;;;;;;;9.00;4.43;;;;;;;1.11;100.00;94984.78;4912422;28;20082;-82
2022/11/23 00:48:55;;;;;;;8.70;3.90;;;;;;;1.12;100.00;94977.84;4905166;28;20129;-82
2022/11/23 00:51:26;;;;;;;8.83;4.23;;;;;;;1.10;100.00;94983.13;4881747;28;20042;-82
2022/11/23 00:53:52;;;;;;;9.63;3.87;;;;;;;1.02;100.00;94988.16;4886670;28;20035;-83
2022/11/23 00:56:19;;;;;;;9.73;4.00;;;;;;;0.97;100.00;94979.13;4883693;28;20036;-83
2022/11/23 00:58:52;;;;;;;9.80;3.77;;;;;;;0.90;100.00;94989.19;4901684;28;21385;-83
2022/11/23 01:01:20;;;;;;;11.50;3.63;;;;;;;0.91;100.00;94985.69;4902999;28;20457;-83
2022/11/23 01:03:51;;;;;;;14.97;4.57;;;;;;;0.88;100.00;94985.94;4909888;28;20298;-83
2022/11/23 01:06:20;;;;;;;10.73;3.77;;;;;;;0.88;100.00;94975.59;4912112;28;20031;-82
2022/11/23 01:08:54;;;;;;;8.13;4.50;;;;;;;0.88;100.00;94986.75;4913291;28;20114;-83
2022/11/23 01:11:23;;;;;;;9.10;3.93;;;;;;;0.99;100.00;94980.66;4916009;28;20562;-82
2022/11/23 01:13:50;;;;;;;10.50;4.33;;;;;;;1.01;100.00;94991.69;4911222;28;21004;-81
2022/11/23 01:16:24;;;;;;;12.80;4.57;;;;;;;1.02;100.00;94985.56;4899650;28;20502;-84
2022/11/23 01:18:59;;;;;;;9.60;3.50;;;;;;;0.97;100.00;94987.72;4898996;28;20249;-82
2022/11/23 01:21:26;;;;;;;9.80;3.40;;;;;;;1.02;100.00;94987.34;4898521;28;22913;-83
2022/11/23 01:23:53;;;;;;;9.83;3.27;;;;;;;1.00;100.00;94992.63;4899853;28;20035;-82
2022/11/23 01:26:19;;;;;;;7.30;3.50;;;;;;;0.99;100.00;94992.78;4900112;28;20843;-83
2022/11/23 01:28:45;;;;;;;11.80;4.07;;;;;;;0.88;100.00;94991.09;4883681;28;20478;-82
2022/11/23 01:31:17;;;;;;;11.00;4.30;;;;;;;0.93;100.00;94994.09;4910973;28;20050;-84
2022/11/23 01:33:44;;;;;;;9.93;3.97;;;;;;;0.91;100.00;94998.63;4899155;28;20404;-82
2022/11/23 01:36:16;;;;;;;13.57;3.90;;;;;;;0.82;100.00;94994.22;4885074;28;20086;-82
2022/11/23 01:38:43;;;;;;;11.27;3.22;;;;;;;0.79;100.00;94995.28;4880152;28;20027;-83
2022/11/23 01:41:13;;;;;;;8.27;2.97;;;;;;;0.73;100.00;94992.41;4900104;28;20140;-82
2022/11/23 01:43:40;;;;;;;11.53;3.23;;;;;;;0.74;100.00;95004.38;4897620;28;20176;-82
2022/11/23 01:46:07;;;;;;;9.40;3.43;;;;;;;0.83;100.00;95006.19;4883188;28;20050;-83
2022/11/23 01:48:36;;;;;;;9.97;4.20;;;;;;;0.80;100.00;95004.69;4884529;28;20562;-83
2022/11/23 01:51:08;;;;;;;9.30;3.83;;;;;;;0.77;100.00;95007.56;4881367;28;20046;-81
2022/11/23 01:53:40;;;;;;;10.03;3.90;;;;;;;0.77;100.00;95011.88;4898975;28;20115;-83
2022/11/23 01:56:09;;;;;;;7.40;3.20;;;;;;;0.76;100.00;95020.59;4900628;28;20189;-82
2022/11/23 01:58:41;;;;;;;10.57;3.63;;;;;;;0.75;100.00;95016.38;4872149;28;20172;-82
2022/11/23 02:01:08;;;;;;;9.90;3.57;;;;;;;0.80;100.00;95019.41;4898893;28;21146;-83
2022/11/23 02:03:36;;;;;;;11.27;3.17;;;;;;;0.88;100.00;95022.16;4867086;28;20463;-82
2022/11/23 02:06:12;;;;;;;8.77;2.70;;;;;;;0.91;100.00;95016.72;4883470;28;20047;-83
2022/11/23 02:08:38;;;;;;;9.85;3.00;;;;;;;0.94;100.00;95011.31;4870582;28;20058;-83
2022/11/23 02:11:04;;;;;;;7.83;3.47;;;;;;;0.97;100.00;95015.38;4868754;28;20069;-82
2022/11/23 02:13:30;;;;;;;8.43;3.30;;;;;;;0.99;100.00;95016.06;4869873;28;21253;-81
2022/11/23 02:15:58;;;;;;;8.20;3.00;;;;;;;0.98;100.00;95023.03;4889463;28;20452;-83
2022/11/23 02:18:30;;;;;;;7.07;2.90;;;;;;;1.01;100.00;95025.34;4882702;28;20102;-82
2022/11/23 02:21:01;;;;;;;10.50;3.30;;;;;;;0.96;100.00;95019.72;4942758;28;20058;-82
2022/11/23 02:23:45;;;;;;;8.67;3.30;;;;;;;0.96;100.00;95018.91;4917052;29;20486;-82
2022/11/23 02:26:16;;;;;;;10.77;4.57;;;;;;;0.95;100.00;95025.88;4916222;29;20032;-82
2022/11/23 02:28:49;;;;;;;6.37;3.30;;;;;;;1.05;100.00;95029.31;4934405;28;20126;-82
2022/11/23 02:31:15;;;;;;;6.35;2.78;;;;;;;1.05;100.00;95024.13;4936518;28;20888;-82
2022/11/23 02:33:40;;;;;;;8.37;2.93;;;;;;;1.03;100.00;95020.03;4931162;29;20066;-83
2022/11/23 02:36:37;;;;;;;11.13;3.23;;;;;;;1.02;100.00;95019.22;4930683;29;20095;-82
2022/11/23 02:39:26;;;;;;;9.43;4.03;;;;;;;1.02;100.00;95018.41;4906027;28;20071;-82
2022/11/23 02:41:53;;;;;;;8.47;2.73;;;;;;;1.04;100.00;95021.66;4884900;28;20420;-82
2022/11/23 02:44:38;;;;;;;7.27;3.17;;;;;;;1.05;100.00;95018.16;4903057;28;20035;-82
2022/11/23 02:47:06;;;;;;;7.47;2.63;;;;;;;1.06;100.00;95015.41;4903277;28;20062;-82
2022/11/23 02:49:32;;;;;;;7.37;2.83;;;;;;;1.07;100.00;95018.81;4907322;28;20027;-82
2022/11/23 02:51:58;;;;;;;7.27;3.10;;;;;;;1.09;100.00;95020.34;4903489;28;20793;-82
2022/11/23 02:54:25;;;;;;;8.73;3.27;;;;;;;1.07;100.00;95016.22;4907502;28;20174;-83
2022/11/23 02:56:51;;;;;;;11.20;3.43;;;;;;;1.09;100.00;95009.97;4897510;28;20049;-82
2022/11/23 02:59:17;;;;;;;9.53;3.60;;;;;;;1.09;100.00;95011.75;4910030;28;20509;-81
2022/11/23 03:01:43;;;;;;;7.90;3.10;;;;;;;1.06;100.00;95007.66;4904241;28;20039;-81
2022/11/23 03:04:11;;;;;;;9.77;2.90;;;;;;;1.12;100.00;95009.72;4890566;28;20454;-82
2022/11/23 03:06:37;;;;;;;5.87;2.73;;;;;;;1.17;100.00;95011.91;4885036;28;20066;-83
2022/11/23 03:09:03;;;;;;;8.17;2.93;;;;;;;1.21;100.00;95012.44;4899184;29;21397;-82
2022/11/23 03:11:29;;;;;;;10.87;3.27;;;;;;;1.18;100.00;95011.78;4920294;28;20028;-83
2022/11/23 03:13:55;;;;;;;7.93;3.03;;;;;;;1.24;100.00;95017.38;4925640;29;20047;-82
2022/11/23 03:16:21;;;;;;;7.83;3.40;;;;;;;1.30;100.00;95016.84;4926234;28;20617;-83
2022/11/23 03:18:53;;;;;;;8.73;3.47;;;;;;;1.32;100.00;95012.38;4924057;29;20114;-82
2022/11/23 03:21:19;;;;;;;8.50;3.47;;;;;;;1.30;100.00;95014.25;4934723;28;20442;-82
2022/11/23 03:23:45;;;;;;;8.20;2.83;;;;;;;1.28;100.00;95017.00;4920274;29;20093;-83
2022/11/23 03:26:12;;;;;;;7.33;2.50;;;;;;;1.32;100.00;95009.78;4923270;29;20027;-83
2022/11/23 03:28:44;;;;;;;5.37;1.87;;;;;;;1.35;100.00;95014.69;4921394;29;20098;-83
2022/11/23 03:31:12;;;;;;;8.03;3.20;;;;;;;1.46;100.00;95014.56;4934652;29;20043;-82
2022/11/23 03:33:38;;;;;;;7.70;2.57;;;;;;;1.39;100.00;95021.25;4936765;28;20118;-82
2022/11/23 03:36:04;;;;;;;8.30;2.67;;;;;;;1.34;100.00;95008.69;4922396;29;20027;-82
2022/11/23 03:38:36;;;;;;;5.50;1.90;;;;;;;1.30;100.00;95003.91;4922726;28;20035;-82
2022/11/23 03:41:08;;;;;;;5.10;2.23;;;;;;;1.33;100.00;94998.44;4923815;29;20027;-82
2022/11/23 03:43:54;;;;;;;12.50;3.33;;;;;;;1.31;100.00;94998.59;4940412;28;20043;-82
2022/11/23 03:46:19;;;;;;;8.50;2.40;;;;;;;1.32;100.00;94999.41;4923120;28;20035;-83
2022/11/23 03:48:45;;;;;;;11.80;2.40;;;;;;;1.32;100.00;94996.81;4919836;28;20031;-82
2022/11/23 03:51:11;;;;;;;6.20;2.37;;;;;;;1.31;100.00;95001.19;4883958;28;20497;-82
2022/11/23 03:53:38;;;;;;;6.70;2.63;;;;;;;1.37;100.00;95005.00;4904999;28;20023;-83
2022/11/23 03:56:04;;;;;;;7.27;2.80;;;;;;;1.41;100.00;94998.63;4898542;28;20046;-83
2022/11/23 03:58:33;;;;;;;8.53;2.40;;;;;;;1.38;100.00;94998.88;4900521;28;20036;-82
2022/11/23 04:01:03;;;;;;;7.93;2.33;;;;;;;1.37;100.00;95005.00;4902807;28;20523;-82
2022/11/23 04:03:29;;;;;;;9.90;2.33;;;;;;;1.35;100.00;94999.16;4887155;28;20031;-82
2022/11/23 04:06:01;;;;;;;6.37;2.13;;;;;;;1.36;100.00;94995.59;4916990;28;20040;-82
2022/11/23 04:08:46;;;;;;;6.57;2.00;;;;;;;1.36;100.00;95003.38;4901855;28;20047;-82
2022/11/23 04:11:19;;;;;;;6.68;2.72;;;;;;;1.34;100.00;94998.34;4898387;28;20145;-81
2022/11/23 04:13:49;;;;;;;7.03;2.87;;;;;;;1.37;100.00;94999.81;4900043;28;20095;-82
2022/11/23 04:16:16;;;;;;;5.73;2.40;;;;;;;1.35;100.00;94999.97;4898773;28;20548;-81
2022/11/23 04:18:42;;;;;;;8.30;3.10;;;;;;;1.34;100.00;95002.66;4901204;28;20029;-82
2022/11/23 04:21:09;;;;;;;7.53;2.97;;;;;;;1.38;100.00;95004.06;4917248;28;20035;-82
2022/11/23 04:23:35;;;;;;;10.57;3.33;;;;;;;1.37;100.00;94999.81;4936861;28;20050;-82
2022/11/23 04:26:03;;;;;;;10.10;2.60;;;;;;;1.34;100.00;95000.09;4932243;29;20032;-83
2022/11/23 04:28:29;;;;;;;6.90;3.47;;;;;;;1.35;100.00;94997.38;4918453;28;20114;-82
2022/11/23 04:30:57;;;;;;;8.37;3.50;;;;;;;1.33;100.00;95003.63;4917696;29;20094;-82
2022/11/23 04:33:23;;;;;;;13.23;6.13;;;;;;;1.30;100.00;94996.13;4931844;28;20023;-82
2022/11/23 04:35:50;;;;;;;11.23;5.33;;;;;;;1.30;100.00;94999.53;4938236;28;20585;-82
2022/11/23 04:38:16;;;;;;;15.77;8.70;;;;;;;1.32;100.00;95005.41;4935780;28;20039;-83
2022/11/23 04:40:42;;;;;;;17.93;9.27;;;;;;;1.32;100.00;94996.81;4935806;29;20649;-82
2022/11/23 04:43:08;;;;;;;12.37;7.07;;;;;;;1.35;100.00;94999.97;4921592;29;20074;-83
2022/11/23 04:45:41;;;;;;;9.77;4.63;;;;;;;1.39;100.00;95000.50;4920420;28;20041;-82
2022/11/23 04:48:13;;;;;;;7.63;3.90;;;;;;;1.40;100.00;94987.41;4935294;29;20039;-83
2022/11/23 04:50:41;;;;;;;8.00;2.60;;;;;;;1.42;100.00;94989.88;4908742;28;21708;-82
2022/11/23 04:53:09;;;;;;;8.23;3.00;;;;;;;1.46;100.00;94985.25;4884779;28;20023;-84
2022/11/23 04:55:40;;;;;;;5.67;2.60;;;;;;;1.47;100.00;94989.47;4882415;28;20042;-82
2022/11/23 04:58:10;;;;;;;5.73;3.10;;;;;;;1.47;100.00;94990.28;4881481;28;20043;-82
2022/11/23 05:00:36;;;;;;;9.57;3.07;;;;;;;1.49;100.00;94985.81;4883926;28;20170;-83
2022/11/23 05:03:04;;;;;;;9.27;3.27;;;;;;;1.49;100.00;94985.81;4887004;28;20633;-82
2022/11/23 05:05:37;;;;;;;9.83;4.17;;;;;;;1.49;100.00;94985.81;4884006;28;20023;-82
2022/11/23 05:08:04;;;;;;;10.33;3.10;;;;;;;1.51;100.00;94983.91;4898029;28;20023;-83
2022/11/23 05:10:44;;;;;;;9.93;3.30;;;;;;;1.52;100.00;94987.31;4894097;28;20046;-83
2022/11/23 05:13:10;;;;;;;9.43;3.57;;;;;;;1.51;100.00;94985.66;4882434;28;20997;-82
2022/11/23 05:15:36;;;;;;;7.60;4.20;;;;;;;1.51;100.00;94983.06;4898414;28;20062;-82
2022/11/23 05:18:06;;;;;;;12.80;5.50;;;;;;;1.49;100.00;94978.03;4882900;28;20059;-82
2022/11/23 05:20:33;;;;;;;10.43;4.90;;;;;;;1.50;100.00;94978.84;4882716;28;20034;-82
2022/11/23 05:22:59;;;;;;;8.57;4.10;;;;;;;1.52;100.00;94975.19;4884073;28;20039;-81
2022/11/23 05:25:26;;;;;;;7.03;3.13;;;;;;;1.53;100.00;94979.41;4897127;28;20917;-83
2022/11/23 05:27:59;;;;;;;7.87;3.00;;;;;;;1.56;100.00;94980.91;4883468;28;20101;-83
2022/11/23 05:30:27;;;;;;;9.87;4.37;;;;;;;1.60;100.00;94969.31;4900040;28;20038;-83
2022/11/23 05:32:59;;;;;;;8.07;2.63;;;;;;;1.62;100.00;94976.00;4879342;28;20038;-83
2022/11/23 05:35:25;;;;;;;13.37;5.83;;;;;;;1.62;100.00;94970.81;4897798;28;20114;-83
2022/11/23 05:37:51;;;;;;;15.93;7.00;;;;;;;1.65;100.00;94970.56;4884642;28;20141;-82
2022/11/23 05:40:17;;;;;;;13.43;5.80;;;;;;;1.69;100.00;94970.28;4863948;28;20093;-62
2022/11/23 05:42:43;;;;;;;8.07;3.43;;;;;;;1.68;100.00;94968.63;4864308;28;20038;-80
2022/11/23 05:45:14;;;;;;;15.30;4.87;;;;;;;1.72;100.00;94970.81;4849656;28;20130;-80
2022/11/23 05:47:52;;;;;;;8.83;3.40;;;;;;;1.69;100.00;94968.50;4878299;28;22059;-80
2022/11/23 05:50:27;;;;;;;11.20;3.47;;;;;;;1.72;100.00;94975.19;4879648;28;20039;-81
2022/11/23 05:53:12;;;;;;;9.60;3.07;;;;;;;1.72;100.00;94970.81;4901156;28;20043;-80
2022/11/23 05:55:39;;;;;;;7.67;3.20;;;;;;;1.74;100.00;94973.28;4892753;28;20971;-80
2022/11/23 05:58:06;;;;;;;10.60;4.40;;;;;;;1.72;100.00;94982.97;4897596;28;20069;-80
2022/11/23 06:00:38;;;;;;;12.83;4.07;;;;;;;1.71;100.00;94974.38;4895247;28;20035;-81
2022/11/23 06:03:05;;;;;;;7.67;2.90;;;;;;;1.77;100.00;94973.81;4893558;28;20035;-80
2022/11/23 06:05:31;;;;;;;8.83;3.10;;;;;;;1.77;100.00;94975.59;4880325;28;20039;-80
2022/11/23 06:08:39;;;;;;;13.10;2.83;;;;;;;1.78;100.00;94972.06;4914302;29;20068;-81
2022/11/23 06:11:05;;;;;;;8.80;3.23;;;;;;;1.77;100.00;94967.81;4919998;28;20026;-81
2022/11/23 06:13:35;;;;;;;10.23;3.60;;;;;;;1.80;100.00;94975.31;4935588;29;20031;-82
2022/11/23 06:16:01;;;;;;;10.50;2.90;;;;;;;1.82;100.00;94974.25;4918351;29;20149;-82
2022/11/23 06:18:36;;;;;;;8.23;2.80;;;;;;;1.88;100.00;94965.91;4932277;28;20822;-81
2022/11/23 06:21:02;;;;;;;8.70;2.30;;;;;;;1.95;100.00;94976.56;4952340;28;20041;-82
2022/11/23 06:23:28;;;;;;;10.40;2.73;;;;;;;1.89;100.00;94977.91;4919629;28;20039;-81
2022/11/23 06:26:01;;;;;;;7.77;2.47;;;;;;;1.91;100.00;94974.34;4941300;29;20075;-81
2022/11/23 06:28:29;;;;;;;7.65;2.92;;;;;;;1.87;100.00;94979.00;4920132;29;20039;-81
2022/11/23 06:31:09;;;;;;;9.07;2.93;;;;;;;1.85;100.00;94986.13;4931683;28;20050;-81
2022/11/23 06:33:35;;;;;;;11.63;3.67;;;;;;;1.84;100.00;94979.28;4946601;28;20059;-82
2022/11/23 06:36:02;;;;;;;11.10;4.20;;;;;;;1.85;100.00;94975.75;4934652;29;20039;-81
2022/11/23 06:38:38;;;;;;;10.03;3.63;;;;;;;1.88;100.00;94981.47;4933671;29;20031;-81
2022/11/23 06:41:12;;;;;;;8.17;3.57;;;;;;;1.89;100.00;94982.28;4941994;29;20122;-81
2022/11/23 06:43:38;;;;;;;10.87;3.87;;;;;;;1.94;100.00;94982.69;4935515;28;20027;-80
2022/11/23 06:46:05;;;;;;;15.03;5.67;;;;;;;1.93;100.00;94981.06;4921532;29;20572;-81
2022/11/23 06:48:33;;;;;;;11.23;5.00;;;;;;;2.00;100.00;94984.72;4921745;28;20035;-81
2022/11/23 06:51:00;;;;;;;9.80;3.90;;;;;;;2.02;100.00;94992.38;4945052;29;20031;-81
2022/11/23 06:53:29;;;;;;;10.33;4.40;;;;;;;2.06;100.00;94989.38;4947195;28;20039;-82
2022/11/23 06:56:05;;;;;;;9.57;3.70;;;;;;;2.08;100.00;94995.25;4945832;28;20122;-82
2022/11/23 06:58:31;;;;;;;12.73;4.00;;;;;;;2.08;100.00;95003.03;4946689;28;20042;-81
2022/11/23 07:01:00;;;;;;;11.90;4.00;;;;;;;2.12;100.00;94998.38;4946411;28;20042;-81
2022/11/23 07:03:28;;;;;;;10.60;4.27;;;;;;;2.15;100.00;95002.44;4941849;28;20035;-82
2022/11/23 07:06:11;;;;;;;9.25;3.78;;;;;;;2.16;100.00;95009.28;4936731;29;20038;-81
2022/11/23 07:08:42;;;;;;;11.77;4.63;;;;;;;2.18;100.00;95010.81;4926772;28;20031;-81
2022/11/23 07:11:28;;;;;;;11.93;3.83;;;;;;;2.25;100.00;95013.66;4936518;28;20039;-81
2022/11/23 07:13:54;;;;;;;9.37;4.13;;;;;;;2.24;100.00;95012.00;4945432;29;20086;-81
2022/11/23 07:16:23;;;;;;;8.10;3.40;;;;;;;2.28;100.00;95015.94;4933269;28;20401;-81
2022/11/23 07:18:50;;;;;;;12.67;4.03;;;;;;;2.29;100.00;95018.44;4956638;28;20038;-82
2022/11/23 07:21:15;;;;;;;10.10;3.90;;;;;;;2.36;100.00;95018.69;4948261;28;20047;-82
2022/11/23 07:23:44;;;;;;;11.30;3.97;;;;;;;2.39;100.00;95013.22;4941042;28;20743;-86
2022/11/23 07:26:10;;;;;;;13.23;5.40;;;;;;;2.38;100.00;95024.53;4927678;29;20028;-85
2022/11/23 07:28:35;;;;;;;11.83;4.50;;;;;;;2.44;100.00;95024.00;4939963;28;20035;-85
2022/11/23 07:31:01;;;;;;;17.73;6.07;;;;;;;2.43;100.00;95024.16;4949701;28;20105;-85
2022/11/23 07:33:28;;;;;;;18.53;4.87;;;;;;;2.52;100.00;95029.31;4945804;28;20038;-86
2022/11/23 07:35:54;;;;;;;14.60;5.10;;;;;;;2.47;100.00;95031.50;4932611;29;20043;-86
2022/11/23 07:38:20;;;;;;;12.60;4.60;;;;;;;2.56;100.00;95028.06;4922138;28;20035;-86
2022/11/23 07:40:50;;;;;;;8.37;3.53;;;;;;;2.56;100.00;95028.06;4933970;28;20157;-86
2022/11/23 07:43:45;;;;;;;8.73;3.57;;;;;;;2.67;100.00;95026.28;4950305;28;20042;-86
2022/11/23 07:46:11;;;;;;;9.13;3.23;;;;;;;2.77;100.00;95019.28;4942641;29;20043;-87
2022/11/23 07:48:37;;;;;;;11.27;3.33;;;;;;;2.76;100.00;95012.47;4925732;28;20038;-86
2022/11/23 07:51:03;;;;;;;9.70;3.37;;;;;;;2.93;100.00;95016.09;4943581;29;20039;-87
2022/11/23 07:53:28;;;;;;;10.23;3.27;;;;;;;3.04;100.00;95006.34;4924018;28;20078;-87
2022/11/23 07:56:04;;;;;;;9.43;3.63;;;;;;;3.04;100.00;95006.34;4939033;28;20094;-86
2022/11/23 07:58:31;;;;;;;9.87;3.67;;;;;;;3.19;100.00;95008.47;4931115;28;20035;-86
2022/11/23 08:00:58;;;;;;;7.37;3.27;;;;;;;3.28;100.00;95007.59;4943481;28;20031;-86
2022/11/23 08:03:24;;;;;;;7.57;2.97;;;;;;;3.18;100.00;95012.81;4924210;28;20035;-86
2022/11/23 08:05:50;;;;;;;7.63;2.90;;;;;;;3.27;100.00;95011.16;4934391;28;20039;-86
2022/11/23 08:08:30;;;;;;;6.93;3.23;;;;;;;3.51;100.00;95006.22;4949218;28;20089;-86
2022/11/23 08:10:56;;;;;;;10.73;3.77;;;;;;;3.43;100.00;94998.34;4916802;29;20035;-87
2022/11/23 08:13:21;;;;;;;9.93;2.97;;;;;;;3.44;100.00;95007.78;4933481;29;20394;-86
2022/11/23 08:15:49;;;;;;;13.77;2.80;;;;;;;3.66;100.00;94993.56;4926394;29;20049;-86
2022/11/23 08:18:15;;;;;;;10.77;3.03;;;;;;;3.95;100.00;94988.13;4947737;29;20046;-86
2022/11/23 08:20:41;;;;;;;8.83;3.33;;;;;;;4.73;100.00;94988.22;4933687;28;20401;-86
2022/11/23 08:23:11;;;;;;;7.10;2.70;;;;;;;4.45;100.00;94986.72;4937071;29;20090;-86
2022/11/23 08:25:37;;;;;;;9.37;3.47;;;;;;;4.36;100.00;94988.47;4947903;28;20039;-87
2022/11/23 08:28:03;;;;;;;12.57;2.60;;;;;;;4.09;100.00;94996.38;4950644;29;20027;-86
2022/11/23 08:30:31;;;;;;;12.60;3.73;;;;;;;4.20;100.00;94999.56;4938589;28;20042;-86
2022/11/23 08:32:57;;;;;;;8.40;3.10;;;;;;;4.17;100.00;94993.84;4948941;28;20038;-85
2022/11/23 08:35:23;;;;;;;10.43;2.47;;;;;;;5.33;100.00;94992.59;4925738;29;20034;-86
2022/11/23 08:37:49;;;;;;;8.20;2.70;;;;;;;5.83;100.00;94981.28;4922535;28;20761;-87
2022/11/23 08:40:31;;;;;;;7.87;3.03;;;;;;;6.26;100.00;94978.59;4953028;28;20133;-86
2022/11/23 08:42:56;;;;;;;8.07;3.10;;;;;;;6.20;100.00;94977.44;4944931;28;20081;-87
2022/11/23 08:45:22;;;;;;;12.33;4.93;;;;;;;6.10;100.00;94982.00;4945370;29;20704;-86
2022/11/23 08:47:49;;;;;;;10.07;3.30;;;;;;;6.32;100.00;94985.78;4952500;28;20046;-87
2022/11/23 08:50:16;;;;;;;10.13;4.47;;;;;;;6.58;100.00;94975.97;4941109;28;20030;-86
2022/11/23 08:52:42;;;;;;;13.87;4.80;;;;;;;6.66;100.00;94969.91;4953979;28;20028;-86
2022/11/23 08:55:08;;;;;;;8.67;4.50;;;;;;;6.97;100.00;94977.03;4956660;28;20210;-87
2022/11/23 08:57:34;;;;;;;9.00;4.23;;;;;;;7.35;100.00;94979.84;4944540;28;20109;-87
2022/11/23 09:00:09;;;;;;;13.00;4.90;;;;;;;7.36;100.00;94971.00;4944403;29;20027;-86
2022/11/23 09:02:34;;;;;;;14.60;4.90;;;;;;;7.42;100.00;94970.34;4924546;28;20490;-87
2022/11/23 09:05:00;;;;;;;9.63;4.00;;;;;;;7.72;100.00;94966.91;4948346;28;20089;-87
2022/11/23 09:07:26;;;;;;;11.03;3.87;;;;;;;8.13;100.00;94966.63;4939408;28;20576;-87
2022/11/23 09:09:52;;;;;;;13.70;3.97;;;;;;;7.19;100.00;94971.06;4936397;29;20070;-87
2022/11/23 09:12:17;;;;;;;7.97;2.73;;;;;;;7.43;100.00;94977.19;4920532;29;20118;-87
2022/11/23 09:14:43;;;;;;;10.67;3.90;;;;;;;7.40;100.00;94967.88;4937297;29;20348;-86
2022/11/23 09:17:09;;;;;;;14.37;5.27;;;;;;;7.95;100.00;94971.34;4936456;29;20110;-87
2022/11/23 09:19:35;;;;;;;9.13;4.07;;;;;;;7.71;100.00;94977.53;4920702;29;20106;-86
2022/11/23 09:22:00;;;;;;;9.53;3.10;;;;;;;7.50;100.00;94971.09;4933445;28;20085;-87
2022/11/23 09:24:26;;;;;;;8.90;2.90;;;;;;;8.76;100.00;94956.78;4943494;29;20142;-87
2022/11/23 09:26:53;;;;;;;7.83;2.93;;;;;;;8.42;100.00;94973.00;4938118;29;20042;-87
2022/11/23 09:29:18;;;;;;;7.23;2.60;;;;;;;8.72;100.00;94958.94;4929147;28;20035;-86
2022/11/23 09:31:49;;;;;;;9.33;2.70;;;;;;;8.25;100.00;94962.63;4931749;28;20085;-87
2022/11/23 09:34:15;;;;;;;12.17;3.97;;;;;;;8.69;100.00;94963.75;4942438;28;20039;-87
2022/11/23 09:36:40;;;;;;;8.20;3.03;;;;;;;8.70;100.00;94966.16;4954683;28;20049;-87
2022/11/23 09:39:07;;;;;;;8.10;3.70;;;;;;;8.53;100.00;94966.50;4941827;29;20039;-87
2022/11/23 09:42:12;;;;;;;8.87;3.97;;;;;;;8.73;100.00;94965.00;4938371;28;20254;-87
2022/11/23 09:44:56;;;;;;;7.00;2.23;;;;;;;9.16;100.00;94955.53;4928805;28;20045;-87
2022/11/23 09:47:55;;;;;;;9.40;2.77;;;;;;;9.17;100.00;94954.53;4924323;29;20047;-87
2022/11/23 09:50:33;;;;;;;9.97;2.73;;;;;;;8.87;100.00;94958.94;4933527;28;20035;-87
2022/11/23 09:53:04;;;;;;;6.43;2.33;;;;;;;9.90;100.00;94951.94;4942229;29;20086;-87
2022/11/23 09:55:43;;;;;;;11.73;3.50;;;;;;;9.49;100.00;94955.13;4936598;28;20039;-87
2022/11/23 09:58:14;;;;;;;8.67;2.20;;;;;;;9.41;100.00;94953.41;4930185;29;20061;-87
2022/11/23 10:01:01;;;;;;;12.10;3.53;;;;;;;9.32;100.00;94954.53;4924650;28;20022;-88
2022/11/23 10:03:41;;;;;;;7.97;2.40;;;;;;;9.57;100.00;94946.34;4935867;28;20047;-87
2022/11/23 10:06:18;;;;;;;7.20;2.63;;;;;;;9.96;100.00;94950.38;4935763;29;20039;-87
2022/11/23 10:09:17;;;;;;;8.20;2.67;;;;;;;9.63;100.00;94943.78;4939692;28;20136;-87
2022/11/23 10:12:00;;;;;;;11.00;4.40;;;;;;;10.68;100.00;94949.44;4935641;29;20027;-87
2022/11/23 10:14:50;;;;;;;8.02;2.03;;;;;;;10.97;100.00;94938.72;4937413;28;20659;-88
2022/11/23 10:17:34;;;;;;;10.40;2.53;;;;;;;10.66;100.00;94943.53;4947615;29;20146;-88
2022/11/23 10:23:42;;;;;;;7.30;2.87;;;;;;;11.43;100.00;94938.13;4940135;29;20094;-87
2022/11/23 10:26:26;;;;;;;11.17;3.70;;;;;;;11.24;100.00;94938.84;4903672;29;20039;-86
2022/11/23 10:29:20;;;;;;;7.10;2.93;;;;;;;10.97;100.00;94938.72;4946396;28;20039;-87
2022/11/23 10:31:48;;;;;;;7.85;2.78;;;;;;;11.35;100.00;94933.03;4947238;28;20552;-87
2022/11/23 10:34:19;;;;;;;11.27;3.50;;;;;;;10.49;100.00;94938.56;4946732;29;20035;-87
2022/11/23 10:36:45;;;;;;;9.50;2.63;;;;;;;12.33;100.00;94919.53;4938193;28;20058;-87
2022/11/23 10:39:27;;;;;;;9.90;2.40;;;;;;;12.48;100.00;94920.97;4960373;28;20065;-87
2022/11/23 10:42:02;;;;;;;8.47;2.97;;;;;;;11.47;100.00;94931.47;4914605;28;20560;-87
2022/11/23 10:44:30;;;;;;;5.70;2.17;;;;;;;11.96;100.00;94921.72;4923833;28;20031;-87
2022/11/23 10:46:58;;;;;;;8.17;2.10;;;;;;;12.22;100.00;94913.03;4931928;29;20079;-86
2022/11/23 10:49:29;;;;;;;7.97;2.20;;;;;;;11.03;100.00;94926.59;4948691;28;20069;-87
2022/11/23 10:52:04;;;;;;;5.30;1.80;;;;;;;11.91;100.00;94917.03;4925525;29;20573;-88
2022/11/23 10:54:56;;;;;;;7.67;1.70;;;;;;;11.98;100.00;94917.88;4933739;28;20035;-86
2022/11/23 10:57:32;;;;;;;5.60;1.97;;;;;;;12.16;100.00;94917.28;4931626;28;20051;-87
2022/11/23 11:00:13;;;;;;;5.27;1.53;;;;;;;12.31;100.00;94914.47;4918564;29;20493;-88
2022/11/23 11:02:44;;;;;;;5.73;1.50;;;;;;;12.31;100.00;94909.19;4914828;28;20125;-87
2022/11/23 11:05:37;;;;;;;4.70;2.10;;;;;;;11.96;100.00;94911.97;4938558;28;20321;-87
2022/11/23 11:08:15;;;;;;;5.78;1.67;;;;;;;12.18;100.00;94909.19;4915432;29;20035;-88
2022/11/23 11:10:55;;;;;;;7.37;1.60;;;;;;;12.07;100.00;94909.75;4935073;28;20445;-88
2022/11/23 11:13:48;;;;;;;5.83;1.57;;;;;;;11.63;100.00;94908.41;4925776;28;20425;-87
2022/11/23 11:16:51;;;;;;;4.72;1.27;;;;;;;12.15;100.00;94907.75;4947388;28;20044;-96
2022/11/23 11:19:34;;;;;;;2.07;0.80;;;;;;;11.61;100.00;94905.19;4946349;29;20054;-96
2022/11/23 11:22:03;;;;;;;4.60;0.90;;;;;;;11.70;100.00;94906.63;4928058;29;20055;-95
2022/11/23 11:24:45;;;;;;;4.53;1.37;;;;;;;11.84;99.52;94897.78;4924810;29;20033;-95
2022/11/23 11:49:31;;;;;;;4.10;0.90;;;;;;;11.26;97.63;94878.94;4938832;28;20085;-89
2022/11/23 11:52:43;;;;;;;6.43;2.27;;;;;;;10.76;97.58;94894.06;4900871;28;20406;-89
2022/11/23 11:55:46;;;;;;;3.30;0.90;;;;;;;11.41;99.60;94881.44;4956025;28;20055;-89
2022/11/23 11:58:26;;;;;;;6.23;1.47;;;;;;;11.43;98.42;94885.47;4941415;29;20071;-89
2022/11/23 12:01:02;;;;;;;4.17;0.93;;;;;;;11.53;97.96;94878.00;4937391;29;20101;-89
2022/11/23 12:03:46;;;;;;;3.57;1.30;;;;;;;11.15;90.44;94880.31;4941540;29;20032;-89
2022/11/23 12:06:42;;;;;;;3.83;1.00;;;;;;;11.06;90.68;94878.84;4928889;28;20118;-90
2022/11/23 12:09:27;;;;;;;2.73;0.70;;;;;;;11.09;94.67;94875.81;4920886;29;20094;-90
2022/11/23 12:11:52;;;;;;;3.33;1.30;;;;;;;11.52;93.16;94867.69;4966418;28;20098;-90